Flight Track Log - Related Links

Times and Time Zones

All times are in EDT time to prevent confusion due to time zone crossing. See the AAL963 flight status page for this flight to view local times or setup timezone preferences in your user account.

Time Position Orientation Groundspeed Altitude Reporting Facility
EDT Latitude Longitude Course Direction KTS MPH feet Rate Location/Type
Fri 09:11:28 PM 32.9700 -97.0200 North 226 260 2,400  Level FlightAware ADS-B
Fri 09:11:44 PM 32.9870 -97.0140 16° North 238 274 2,800 1,500 Climbing FlightAware ADS-B
Fri 09:11:56 PM 32.9990 -97.0050 32° Northeast 245 282 3,100 1,680 Climbing FlightAware ADS-B
Fri 09:12:09 PM 33.0080 -96.9940 46° Northeast 249 287 3,500 2,143 Climbing FlightAware ADS-B
Fri 09:12:38 PM 33.0250 -96.9570 61° Northeast 255 293 4,600 2,154 Climbing FlightAware ADS-B
Fri 09:12:48 PM 33.0260 -96.9440 85° East 261 300 4,900 2,250 Climbing FlightAware ADS-B
Fri 09:13:18 PM 33.0170 -96.9010 104° East 262 302 6,100 2,000 Climbing FlightAware ADS-B
Fri 09:13:48 PM 33.0030 -96.8580 111° Southeast 280 322 6,900 1,565 Climbing FlightAware ADS-B
Fri 09:14:04 PM 32.9930 -96.8360 118° Southeast 294 338 7,300 1,814 Climbing FlightAware ADS-B
Fri 09:14:31 PM 32.9640 -96.8090 142° Southeast 306 352 8,200 1,950 Climbing FlightAware ADS-B
Fri 09:14:44 PM 32.9460 -96.8020 162° South 312 359 8,600 1,902 Climbing FlightAware ADS-B
Fri 09:15:12 PM 32.9050 -96.7970 174° South 317 365 9,500 1,913 Climbing FlightAware ADS-B
Fri 09:15:53 PM 32.8450 -96.7910 175° South 329 379 10,800 1,373 Climbing FlightAware ADS-B
Fri 09:16:35 PM 32.7780 -96.7910 180° South 360 414 11,400 767 Climbing FlightAware ADS-B
Fri 09:17:19 PM 32.6990 -96.7940 182° South 399 459 11,900 1,341 Climbing FlightAware ADS-B
Fri 09:18:00 PM 32.6230 -96.7980 183° South 404 465 13,300 1,829 Climbing FlightAware ADS-B
Fri 09:18:41 PM 32.5530 -96.8020 183° South 410 472 14,400 1,829 Climbing FlightAware ADS-B
Fri 09:19:22 PM 32.4670 -96.8060 182° South 417 480 15,800 2,071 Climbing FlightAware ADS-B
Fri 09:20:05 PM 32.3830 -96.8100 182° South 420 483 17,300 1,824 Climbing FlightAware ADS-B
Fri 09:21:04 PM 32.2661 -96.8070 179° South 433 498 18,900 1,655 Climbing FlightAware ADS-B
Fri 09:21:32 PM 32.2111 -96.7887 164° South 438 504 19,700 1,662 Climbing FlightAware ADS-B
Fri 09:22:09 PM 32.1404 -96.7612 162° South 444 511 20,700 1,543 Climbing FlightAware ADS-B
Fri 09:22:42 PM 32.0754 -96.7357 162° South 450 518 21,500 1,406 Climbing FlightAware ADS-B
Fri 09:23:13 PM 32.0139 -96.7122 162° South 455 524 22,200 1,377 Climbing FlightAware ADS-B
Fri 09:23:43 PM 31.9530 -96.6891 162° South 459 528 22,900 1,258 Climbing FlightAware ADS-B
Fri 09:24:15 PM 31.8878 -96.6644 162° South 466 536 23,500 1,301 Climbing FlightAware ADS-B
Fri 09:25:06 PM 31.7827 -96.6220 161° South 471 542 24,700 1,481 Climbing FlightAware ADS-B
Fri 09:25:36 PM 31.7207 -96.5962 161° South 473 544 25,500 1,355 Climbing FlightAware ADS-B
Fri 09:26:08 PM 31.6547 -96.5691 161° South 476 548 26,100 1,125 Climbing FlightAware ADS-B
Fri 09:26:40 PM 31.5863 -96.5413 161° South 481 554 26,700 1,048 Climbing FlightAware ADS-B
Fri 09:27:11 PM 31.5214 -96.5149 161° South 483 556 27,200 1,279 Climbing FlightAware ADS-B
Fri 09:27:41 PM 31.4572 -96.4902 162° South 479 551 28,000 1,279 Climbing FlightAware ADS-B
Fri 09:28:12 PM 31.3922 -96.4664 163° South 483 556 28,500 787 Climbing FlightAware ADS-B
Fri 09:28:42 PM 31.3273 -96.4425 163° South 489 563 28,800 677 Climbing FlightAware ADS-B
Fri 09:29:14 PM 31.2594 -96.4173 162° South 494 568 29,200 706 Climbing FlightAware ADS-B
Fri 09:29:33 PM 31.2169 -96.4010 162° South 498 573 29,400 643 Climbing FlightAware ADS-B
Fri 09:29:42 PM 31.1983 -96.3914 156° South 502 578 29,500 900 Climbing FlightAware ADS-B
Fri 09:29:53 PM 31.1758 -96.3758 149° Southeast 506 582 29,700 1,125 Climbing FlightAware ADS-B
Fri 09:29:58 PM 31.1671 -96.3684 144° Southeast 508 585 29,800 571 Climbing FlightAware ADS-B
Fri 09:30:14 PM 31.1382 -96.3370 135° Southeast 516 594 29,900 778 Climbing FlightAware ADS-B
Fri 09:30:52 PM 31.0841 -96.2513 126° Southeast 520 598 30,500 1,043 Climbing FlightAware ADS-B
Fri 09:31:23 PM 31.0419 -96.1822 125° Southeast 517 595 31,100 1,180 Climbing FlightAware ADS-B
Fri 09:31:53 PM 31.0000 -96.1136 125° Southeast 516 594 31,700 623 Climbing FlightAware ADS-B
Fri 09:34:26 PM 30.7865 -95.7685 126° Southeast 516 594 33,000 424 Climbing FlightAware ADS-B
Fri 09:34:57 PM 30.7438 -95.7001 126° Southeast 515 593 33,000  Level FlightAware ADS-B
Fri 09:35:27 PM 30.7014 -95.6320 126° Southeast 515 593 33,000  Level FlightAware ADS-B
Fri 09:37:32 PM 30.5264 -95.3525 126° Southeast 517 595 33,000  Level FlightAware ADS-B
Fri 09:39:06 PM 30.3939 -95.1421 126° Southeast 520 598 33,000  Level FlightAware ADS-B
Fri 09:39:42 PM 30.3421 -95.0602 126° Southeast 522 601 33,000  Level FlightAware ADS-B
Fri 09:40:43 PM 30.2559 -94.9243 126° Southeast 523 602 33,000  Level FlightAware ADS-B
Fri 09:41:13 PM 30.2124 -94.8558 126° Southeast 524 603 33,000  Level FlightAware ADS-B
Fri 09:41:43 PM 30.1691 -94.7878 126° Southeast 524 603 33,000  Level FlightAware ADS-B
Fri 09:43:15 PM 30.0379 -94.5824 126° Southeast 524 603 33,000  Level FlightAware ADS-B
Fri 09:45:48 PM 29.8179 -94.2405 127° Southeast 520 598 33,000  Level FlightAware ADS-B
Fri 09:46:18 PM 29.7747 -94.1737 127° Southeast 520 598 33,000  Level FlightAware ADS-B
Fri 09:46:50 PM 29.7284 -94.1022 127° Southeast 519 597 33,000  Level FlightAware ADS-B
Fri 09:47:08 PM 29.7009 -94.0630 129° Southeast 517 595 33,000  Level FlightAware ADS-B
Fri 09:48:01 PM 29.6066 -93.9682 141° Southeast 513 590 33,000  Level FlightAware ADS-B
Fri 09:48:31 PM 29.5492 -93.9191 143° Southeast 512 589 33,000  Level FlightAware ADS-B
Fri 09:49:05 PM 29.4849 -93.8648 144° Southeast 512 589 33,000  Level FlightAware ADS-B
Fri 09:49:42 PM 29.4145 -93.8051 144° Southeast 512 589 33,000  Level FlightAware ADS-B
Fri 09:50:14 PM 29.3542 -93.7540 144° Southeast 511 588 33,000  Level FlightAware ADS-B
Fri 09:50:44 PM 29.2965 -93.7051 144° Southeast 511 588 33,000  Level FlightAware ADS-B
Fri 09:51:15 PM 29.2374 -93.6550 144° Southeast 511 588 33,000  Level FlightAware ADS-B
Fri 09:51:46 PM 29.1793 -93.6056 143° Southeast 511 588 33,000  Level FlightAware ADS-B
Fri 09:52:17 PM 29.1206 -93.5559 144° Southeast 512 589 33,000  Level FlightAware ADS-B
Fri 09:52:48 PM 29.0616 -93.5061 144° Southeast 510 587 33,000  Level FlightAware ADS-B
Fri 09:53:18 PM 29.0043 -93.4577 144° Southeast 510 587 33,000  Level FlightAware ADS-B
Fri 09:53:48 PM 28.9467 -93.4091 144° Southeast 509 586 33,000 -65 Level FlightAware ADS-B
Fri 09:54:50 PM 28.8461 -93.3236 144° Southeast 509 586 32,900 -48 Descending Houston Center
Fri 09:55:52 PM 28.7336 -93.2286 143° Southeast 505 581 32,900  Level Houston Center
Fri 09:56:53 PM 28.6197 -93.1350 144° Southeast 505 581 32,900 49 Level Houston Center
Fri 09:57:54 PM 28.5067 -93.0392 143° Southeast 505 581 33,000  Climbing Houston Center
Fri 09:58:56 PM 28.3717 -92.9264 144° Southeast 504 580 32,900 -49 Descending Houston Center
Fri 09:59:57 PM 28.2597 -92.8322 143° Southeast 503 579 32,900  Level Houston Center
Fri 10:00:58 PM 28.1450 -92.7403 145° Southeast 504 580 32,900 49 Level Houston Center
Fri 10:01:59 PM 28.0325 -92.6458 143° Southeast 504 580 33,000 49 Climbing Houston Center
Fri 10:03:01 PM 27.9175 -92.5514 144° Southeast 509 586 33,000 -49 Level Houston Center
Fri 10:04:02 PM 27.8053 -92.4558 143° Southeast 507 583 32,900 -49 Descending Houston Center
Fri 10:05:03 PM 27.6881 -92.3664 146° Southeast 506 582 32,900 49 Level Houston Center
Fri 10:06:04 PM 27.5739 -92.2722 144° Southeast 508 585 33,000 49 Climbing Houston Center
Fri 10:07:05 PM 27.4606 -92.1803 144° Southeast 504 580 33,000  Level Houston Center
Fri 10:08:06 PM 27.3453 -92.0883 145° Southeast 506 582 33,000 13 Level Houston Center
Fri 10:10:00 PM 27.1460 -91.9167 144° Southeast  Level FlightAware Approximate
Fri 10:17:00 PM 26.3923 -91.3167 144° Southeast  Level FlightAware Approximate
Fri 10:18:00 PM 26.2845 -91.2316 145° Southeast  Level FlightAware Approximate
Fri 10:19:00 PM 26.1766 -91.1466 145° Southeast  Level FlightAware Approximate
Fri 10:20:00 PM 26.0687 -91.0618 145° Southeast  Level FlightAware Approximate
Fri 10:21:00 PM 25.9607 -90.9771 145° Southeast  Level FlightAware Approximate
Fri 10:22:00 PM 25.8527 -90.8926 145° Southeast  Level FlightAware Approximate
Fri 10:23:00 PM 25.7446 -90.8082 145° Southeast  Level FlightAware Approximate
Fri 10:24:00 PM 25.6365 -90.7240 145° Southeast  Level FlightAware Approximate
Fri 10:25:00 PM 25.5283 -90.6399 145° Southeast  Level FlightAware Approximate
Fri 10:26:00 PM 25.4201 -90.5560 145° Southeast  Level FlightAware Approximate
Fri 10:27:00 PM 25.3119 -90.4723 145° Southeast  Level FlightAware Approximate
Fri 10:28:00 PM 25.2036 -90.3887 145° Southeast  Level FlightAware Approximate
Fri 10:29:00 PM 25.0952 -90.3052 145° Southeast  Level FlightAware Approximate
Fri 10:30:00 PM 24.9868 -90.2219 145° Southeast  Level FlightAware Approximate
Fri 10:31:00 PM 24.8783 -90.1387 145° Southeast  Level FlightAware Approximate
Fri 10:32:00 PM 24.7698 -90.0557 145° Southeast  Level FlightAware Approximate
Fri 10:33:00 PM 24.6613 -89.9728 145° Southeast  Level FlightAware Approximate
Fri 10:34:00 PM 24.5527 -89.8901 145° Southeast  Level FlightAware Approximate
Fri 10:35:00 PM 24.4455 -89.8056 146° Southeast  Level FlightAware Approximate
Fri 10:36:00 PM 24.3358 -89.7252 146° Southeast  Level FlightAware Approximate
Fri 10:37:00 PM 24.2260 -89.6450 146° Southeast  Level FlightAware Approximate
Fri 10:38:00 PM 24.1162 -89.5649 146° Southeast  Level FlightAware Approximate
Fri 10:39:00 PM 24.0073 -89.4834 145° Southeast  Level FlightAware Approximate
Fri 10:40:00 PM 23.8998 -89.3997 145° Southeast  Level FlightAware Approximate
Fri 10:41:00 PM 23.7923 -89.3162 145° Southeast  Level FlightAware Approximate
Fri 10:42:00 PM 23.6839 -89.2340 146° Southeast  Level FlightAware Approximate
Fri 10:43:00 PM 23.5750 -89.1528 146° Southeast  Level FlightAware Approximate
Fri 10:44:00 PM 23.4660 -89.0718 146° Southeast  Level FlightAware Approximate
Fri 10:45:00 PM 23.3570 -88.9909 146° Southeast  Level FlightAware Approximate
Fri 10:46:00 PM 23.2479 -88.9101 146° Southeast  Level FlightAware Approximate
Fri 10:47:00 PM 23.1391 -88.8290 145° Southeast  Level FlightAware Approximate
Fri 10:48:00 PM 23.0310 -88.7468 145° Southeast  Level FlightAware Approximate
Fri 10:49:00 PM 22.9229 -88.6647 145° Southeast  Level FlightAware Approximate
Fri 10:50:00 PM 22.8148 -88.5827 145° Southeast  Level FlightAware Approximate
Fri 10:51:00 PM 22.7066 -88.5009 145° Southeast  Level FlightAware Approximate
Fri 10:52:00 PM 22.6071 -88.4074 137° Southeast  Level FlightAware Approximate
Fri 10:53:00 PM 22.5100 -88.3107 137° Southeast  Level FlightAware Approximate
Fri 10:54:00 PM 22.4128 -88.2142 137° Southeast  Level FlightAware Approximate
Fri 10:55:00 PM 22.3155 -88.1179 137° Southeast  Level FlightAware Approximate
Fri 10:56:00 PM 22.2182 -88.0216 138° Southeast  Level FlightAware Approximate
Fri 10:57:00 PM 22.1209 -87.9255 138° Southeast  Level FlightAware Approximate
Fri 10:58:00 PM 22.0235 -87.8296 138° Southeast  Level FlightAware Approximate
Fri 10:59:00 PM 21.9260 -87.7337 138° Southeast  Level FlightAware Approximate
Fri 11:00:00 PM 21.8284 -87.6380 138° Southeast  Level FlightAware Approximate
Fri 11:01:00 PM 21.7309 -87.5425 138° Southeast  Level FlightAware Approximate
Fri 11:02:00 PM 21.6332 -87.4470 138° Southeast  Level FlightAware Approximate
Fri 11:03:00 PM 21.5355 -87.3517 138° Southeast  Level FlightAware Approximate
Fri 11:04:00 PM 21.4377 -87.2567 138° Southeast  Level FlightAware Approximate
Fri 11:05:00 PM 21.3397 -87.1618 138° Southeast  Level FlightAware Approximate
Fri 11:06:00 PM 21.2417 -87.0670 138° Southeast  Level FlightAware Approximate
Fri 11:07:00 PM 21.1437 -86.9724 138° Southeast  Level FlightAware Approximate
Fri 11:08:00 PM 21.0456 -86.8778 138° Southeast  Level FlightAware Approximate
Fri 11:09:00 PM 20.9479 -86.7829 138° Southeast  Level FlightAware Approximate
Fri 11:10:00 PM 20.8503 -86.6879 138° Southeast  Level FlightAware Approximate
Fri 11:11:00 PM 20.7526 -86.5930 138° Southeast  Level FlightAware Approximate
Fri 11:12:00 PM 20.6550 -86.4983 138° Southeast  Level FlightAware Approximate
Fri 11:13:00 PM 20.5572 -86.4037 138° Southeast  Level FlightAware Approximate
Fri 11:14:00 PM 20.4594 -86.3092 138° Southeast  Level FlightAware Approximate
Fri 11:15:00 PM 20.3616 -86.2148 138° Southeast  Level FlightAware Approximate
Fri 11:16:00 PM 20.2637 -86.1205 138° Southeast  Level FlightAware Approximate
Fri 11:17:00 PM 20.1658 -86.0263 138° Southeast  Level FlightAware Approximate
Fri 11:18:00 PM 20.0678 -85.9323 138° Southeast  Level FlightAware Approximate
Fri 11:19:00 PM 19.9694 -85.8387 138° Southeast  Level FlightAware Approximate
Fri 11:20:00 PM 19.8708 -85.7456 138° Southeast  Level FlightAware Approximate
Fri 11:21:00 PM 19.7721 -85.6526 138° Southeast  Level FlightAware Approximate
Fri 11:22:00 PM 19.6733 -85.5597 138° Southeast  Level FlightAware Approximate
Fri 11:23:00 PM 19.5745 -85.4669 138° Southeast  Level FlightAware Approximate
Fri 11:24:00 PM 19.4756 -85.3742 139° Southeast  Level FlightAware Approximate
Fri 11:25:00 PM 19.3767 -85.2817 139° Southeast  Level FlightAware Approximate
Fri 11:26:00 PM 19.2778 -85.1892 139° Southeast  Level FlightAware Approximate
Fri 11:27:00 PM 19.1788 -85.0969 139° Southeast  Level FlightAware Approximate
Fri 11:28:00 PM 19.0797 -85.0047 139° Southeast  Level FlightAware Approximate
Fri 11:29:00 PM 18.9806 -84.9126 139° Southeast  Level FlightAware Approximate
Fri 11:30:00 PM 18.8815 -84.8206 139° Southeast  Level FlightAware Approximate
Fri 11:31:00 PM 18.7823 -84.7287 139° Southeast  Level FlightAware Approximate
Fri 11:32:00 PM 18.6831 -84.6370 139° Southeast  Level FlightAware Approximate
Fri 11:33:00 PM 18.5839 -84.5453 139° Southeast  Level FlightAware Approximate
Fri 11:34:00 PM 18.4932 -84.4458 123° Southeast  Level FlightAware Approximate
Fri 11:35:00 PM 18.4202 -84.3299 125° Southeast  Level FlightAware Approximate
Fri 11:36:00 PM 18.3452 -84.2156 125° Southeast  Level FlightAware Approximate
Fri 11:37:00 PM 18.2701 -84.1014 125° Southeast  Level FlightAware Approximate
Fri 11:38:00 PM 18.1949 -83.9873 125° Southeast  Level FlightAware Approximate
Fri 11:39:00 PM 18.1197 -83.8732 125° Southeast  Level FlightAware Approximate
Fri 11:40:00 PM 18.0444 -83.7593 125° Southeast  Level FlightAware Approximate
Fri 11:41:00 PM 17.9691 -83.6454 125° Southeast  Level FlightAware Approximate
Fri 11:42:00 PM 17.8797 -83.5441 135° Southeast  Level FlightAware Approximate
Fri 11:43:00 PM 17.7856 -83.4470 136° Southeast  Level FlightAware Approximate
Fri 11:44:00 PM 17.6914 -83.3500 136° Southeast  Level FlightAware Approximate
Fri 11:45:00 PM 17.5972 -83.2531 136° Southeast  Level FlightAware Approximate
Fri 11:46:00 PM 17.5030 -83.1563 136° Southeast  Level FlightAware Approximate
Fri 11:47:00 PM 17.4086 -83.0597 136° Southeast  Level FlightAware Approximate
Fri 11:48:00 PM 17.3115 -82.9662 139° Southeast  Level FlightAware Approximate
Fri 11:49:00 PM 17.2121 -82.8754 139° Southeast  Level FlightAware Approximate
Fri 11:50:00 PM 17.1127 -82.7847 139° Southeast  Level FlightAware Approximate
Fri 11:51:00 PM 17.0132 -82.6941 139° Southeast  Level FlightAware Approximate
Fri 11:52:00 PM 16.9137 -82.6035 139° Southeast  Level FlightAware Approximate
Fri 11:53:00 PM 16.8142 -82.5131 139° Southeast  Level FlightAware Approximate
Fri 11:54:00 PM 16.7146 -82.4227 139° Southeast  Level FlightAware Approximate
Fri 11:55:00 PM 16.6150 -82.3325 139° Southeast  Level FlightAware Approximate
Fri 11:56:00 PM 16.5153 -82.2423 139° Southeast  Level FlightAware Approximate
Fri 11:57:00 PM 16.4186 -82.1490 134° Southeast  Level FlightAware Approximate
Fri 11:58:00 PM 16.3275 -82.0496 134° Southeast  Level FlightAware Approximate
Fri 11:59:00 PM 16.2363 -81.9503 134° Southeast  Level FlightAware Approximate
Sat 12:00:00 AM 16.1451 -81.8511 134° Southeast  Level FlightAware Approximate
Sat 12:01:00 AM 16.0539 -81.7519 134° Southeast  Level FlightAware Approximate
Sat 12:02:00 AM 15.9626 -81.6529 134° Southeast  Level FlightAware Approximate
Sat 12:03:00 AM 15.8713 -81.5539 134° Southeast  Level FlightAware Approximate
Sat 12:04:00 AM 15.7799 -81.4550 134° Southeast  Level FlightAware Approximate
Sat 12:05:00 AM 15.6884 -81.3562 134° Southeast  Level FlightAware Approximate
Sat 12:06:00 AM 15.5970 -81.2575 134° Southeast  Level FlightAware Approximate
Sat 12:07:00 AM 15.5055 -81.1589 134° Southeast  Level FlightAware Approximate
Sat 12:08:00 AM 15.4139 -81.0604 134° Southeast  Level FlightAware Approximate
Sat 12:09:00 AM 15.3223 -80.9620 134° Southeast  Level FlightAware Approximate
Sat 12:10:00 AM 15.2307 -80.8636 134° Southeast  Level FlightAware Approximate
Sat 12:11:00 AM 15.1390 -80.7654 134° Southeast  Level FlightAware Approximate
Sat 12:12:00 AM 15.0472 -80.6672 134° Southeast  Level FlightAware Approximate
Sat 12:13:00 AM 14.9496 -80.5759 142° Southeast  Level FlightAware Approximate
Sat 12:14:00 AM 14.8456 -80.4919 142° Southeast  Level FlightAware Approximate
Sat 12:15:00 AM 14.7417 -80.4079 142° Southeast  Level FlightAware Approximate
Sat 12:16:00 AM 14.6376 -80.3241 142° Southeast  Level FlightAware Approximate
Sat 12:17:00 AM 14.5336 -80.2403 142° Southeast  Level FlightAware Approximate
Sat 12:18:00 AM 14.4295 -80.1566 142° Southeast  Level FlightAware Approximate
Sat 12:19:00 AM 14.3254 -80.0730 142° Southeast  Level FlightAware Approximate
Sat 12:20:00 AM 14.2213 -79.9894 142° Southeast  Level FlightAware Approximate
Sat 12:21:00 AM 14.1172 -79.9059 142° Southeast  Level FlightAware Approximate
Sat 12:22:00 AM 14.0130 -79.8225 142° Southeast  Level FlightAware Approximate
Sat 12:23:00 AM 13.9087 -79.7392 142° Southeast  Level FlightAware Approximate
Sat 12:24:00 AM 13.8045 -79.6560 142° Southeast  Level FlightAware Approximate
Sat 12:25:00 AM 13.7002 -79.5728 142° Southeast  Level FlightAware Approximate
Sat 12:26:00 AM 13.5959 -79.4897 142° Southeast  Level FlightAware Approximate
Sat 12:27:00 AM 13.4916 -79.4067 142° Southeast  Level FlightAware Approximate
Sat 12:28:00 AM 13.3872 -79.3238 142° Southeast  Level FlightAware Approximate
Sat 12:29:00 AM 13.2828 -79.2409 142° Southeast  Level FlightAware Approximate
Sat 12:30:00 AM 13.1784 -79.1581 142° Southeast  Level FlightAware Approximate
Sat 12:31:00 AM 13.0740 -79.0753 142° Southeast  Level FlightAware Approximate
Sat 12:32:00 AM 12.9695 -78.9927 142° Southeast  Level FlightAware Approximate
Sat 12:33:00 AM 12.8650 -78.9101 142° Southeast  Level FlightAware Approximate
Sat 12:34:00 AM 12.7605 -78.8276 142° Southeast  Level FlightAware Approximate
Sat 12:35:00 AM 12.6560 -78.7450 142° Southeast  Level FlightAware Approximate
Sat 12:36:00 AM 12.5516 -78.6624 142° Southeast  Level FlightAware Approximate
Sat 12:37:00 AM 12.4477 -78.5803 142° Southeast  Level FlightAware Approximate
Sat 12:38:00 AM 12.3438 -78.4983 142° Southeast  Level FlightAware Approximate
Sat 12:39:00 AM 12.2399 -78.4163 142° Southeast  Level FlightAware Approximate
Sat 12:40:00 AM 12.1359 -78.3344 142° Southeast  Level FlightAware Approximate
Sat 12:40:42 AM 11.4100 -77.7660 142° Southeast 487 560 35,000  Level FlightAware ADS-B
Sat 12:41:00 AM 12.0319 -78.2525 142° Southeast  Level FlightAware Approximate
Sat 12:41:15 AM 11.3630 -77.7280 142° Southeast 487 560 35,000  Level FlightAware ADS-B
Sat 12:42:04 AM 11.2890 -77.6690 142° Southeast 487 560 35,000  Level FlightAware ADS-B
Sat 12:42:41 AM 11.2330 -77.6250 142° Southeast 487 560 35,000  Level FlightAware ADS-B
Sat 12:43:28 AM 11.1620 -77.5680 142° Southeast 487 560 35,000  Level FlightAware ADS-B
Sat 12:44:03 AM 11.1090 -77.5260 142° Southeast 487 560 35,000  Level FlightAware ADS-B
Sat 12:44:52 AM 10.9670 -77.4220 144° Southeast 484 557 35,000  Level FlightAware ADS-B
Sat 12:45:33 AM 10.8930 -77.3560 139° Southeast 483 556 35,000  Level FlightAware ADS-B
Sat 12:46:13 AM 10.8250 -77.2920 137° Southeast 483 556 35,000  Level FlightAware ADS-B
Sat 12:46:53 AM 10.7580 -77.2290 137° Southeast 485 558 35,000  Level FlightAware ADS-B
Sat 12:47:50 AM 10.6690 -77.1460 137° Southeast 486 559 35,000  Level FlightAware ADS-B
Sat 12:48:29 AM 10.6150 -77.0940 137° Southeast 486 559 35,000  Level FlightAware ADS-B
Sat 12:49:15 AM 10.5210 -77.0080 138° Southeast 486 559 35,000  Level FlightAware ADS-B
Sat 12:50:01 AM 10.4440 -76.9370 138° Southeast 485 558 35,000  Level FlightAware ADS-B
Sat 12:50:42 AM 10.3760 -76.8740 138° Southeast 482 555 35,000  Level FlightAware ADS-B
Sat 12:51:22 AM 10.3100 -76.8120 137° Southeast 482 555 35,000  Level FlightAware ADS-B
Sat 12:52:02 AM 10.2460 -76.7530 138° Southeast 483 556 35,000  Level FlightAware ADS-B
Sat 12:52:47 AM 10.1690 -76.6820 138° Southeast 482 555 35,000  Level FlightAware ADS-B
Sat 12:53:43 AM 10.0770 -76.5970 138° Southeast 480 552 35,000  Level FlightAware ADS-B
Sat 12:54:28 AM 10.0080 -76.5330 138° Southeast 479 551 35,000  Level FlightAware ADS-B
Sat 12:55:08 AM 9.9390 -76.4680 137° Southeast 477 549 35,000  Level FlightAware ADS-B
Sat 12:55:48 AM 9.8740 -76.4090 138° Southeast 477 549 35,000  Level FlightAware ADS-B
Sat 12:56:33 AM 9.8020 -76.3420 137° Southeast 475 547 35,000  Level FlightAware ADS-B
Sat 12:57:06 AM 9.7550 -76.2980 137° Southeast 475 547 35,000  Level FlightAware ADS-B
Sat 12:58:06 AM 9.6580 -76.2070 137° Southeast 466 536 35,000  Level FlightAware ADS-B
Sat 12:58:54 AM 9.5950 -76.1450 136° Southeast 466 536 35,000  Level FlightAware ADS-B
Sat 12:59:30 AM 9.5470 -76.0980 136° Southeast 466 536 35,000  Level FlightAware ADS-B
Sat 01:00:31 AM 9.4670 -76.0200 136° Southeast 466 536 35,000  Level FlightAware ADS-B
Sat 01:01:07 AM 9.4190 -75.9730 136° Southeast 466 536 35,000  Level FlightAware ADS-B
Sat 01:01:55 AM 9.3560 -75.9110 136° Southeast 466 536 35,000  Level FlightAware ADS-B
Sat 01:02:31 AM 9.3090 -75.8650 136° Southeast 466 536 35,000  Level FlightAware ADS-B
Sat 01:03:20 AM 9.2440 -75.8020 136° Southeast 466 536 35,000  Level FlightAware ADS-B
Sat 01:03:56 AM 9.1970 -75.7550 135° Southeast 466 536 35,000  Level FlightAware ADS-B
Sat 01:04:50 AM 8.9990 -75.6020 143° Southeast 476 548 35,000  Level FlightAware ADS-B
Sat 01:05:37 AM 8.9260 -75.5350 138° Southeast 475 547 35,000  Level FlightAware ADS-B
Sat 01:06:16 AM 8.8510 -75.4660 138° Southeast 474 545 35,000  Level FlightAware ADS-B
Sat 01:07:02 AM 8.7770 -75.3980 138° Southeast 474 545 35,000  Level FlightAware ADS-B
Sat 01:07:37 AM 8.7200 -75.3460 138° Southeast 475 547 35,000  Level FlightAware ADS-B
Sat 01:08:23 AM 8.6450 -75.2780 138° Southeast 475 547 35,000  Level FlightAware ADS-B
Sat 01:09:03 AM 8.5900 -75.2270 137° Southeast 475 547 35,000  Level FlightAware ADS-B
Sat 01:09:43 AM 8.5230 -75.1650 138° Southeast 474 545 35,000  Level FlightAware ADS-B
Sat 01:10:33 AM 8.4530 -75.1020 138° Southeast 474 545 35,000  Level FlightAware ADS-B
Sat 01:11:30 AM 8.3490 -75.0070 138° Southeast 472 543 35,000  Level FlightAware ADS-B
Sat 01:12:05 AM 8.3000 -74.9630 138° Southeast 472 543 35,000  Level FlightAware ADS-B
Sat 01:12:53 AM 8.2340 -74.9020 138° Southeast 472 543 35,000  Level FlightAware ADS-B
Sat 01:13:29 AM 8.1850 -74.8570 138° Southeast 472 543 35,000  Level FlightAware ADS-B
Sat 01:14:15 AM 8.1210 -74.7990 138° Southeast 472 543 35,000  Level FlightAware ADS-B
Sat 01:14:54 AM 8.0670 -74.7510 139° Southeast 472 543 35,000  Level FlightAware ADS-B
Sat 01:15:43 AM 8.0000 -74.6890 137° Southeast 472 543 35,000  Level FlightAware ADS-B
Sat 01:16:19 AM 7.9500 -74.6440 138° Southeast 472 543 35,000  Level FlightAware ADS-B
Sat 01:17:07 AM 7.8840 -74.5840 138° Southeast 472 543 35,000  Level FlightAware ADS-B
Sat 01:17:43 AM 7.8340 -74.5390 138° Southeast 472 543 35,000  Level FlightAware ADS-B
Sat 01:18:31 AM 7.7680 -74.4780 138° Southeast 472 543 35,000  Level FlightAware ADS-B
Sat 01:19:08 AM 7.7170 -74.4320 138° Southeast 472 543 35,000  Level FlightAware ADS-B
Sat 01:19:56 AM 7.6510 -74.3720 138° Southeast 472 543 35,000  Level FlightAware ADS-B
Sat 01:20:33 AM 7.6000 -74.3260 138° Southeast 472 543 35,000 -8 Level FlightAware ADS-B
Sat 01:23:00 AM 7.3600 -74.1094 138° Southeast  Level FlightAware Approximate
Sat 01:24:00 AM 7.2621 -74.0210 138° Southeast  Level FlightAware Approximate
Sat 01:25:00 AM 7.1641 -73.9327 138° Southeast  Level FlightAware Approximate
Sat 01:26:00 AM 7.0661 -73.8445 138° Southeast  Level FlightAware Approximate
Sat 01:27:00 AM 6.9593 -73.7688 152° Southeast  Level FlightAware Approximate
Sat 01:28:00 AM 6.8436 -73.7059 152° Southeast  Level FlightAware Approximate
Sat 01:29:00 AM 6.7283 -73.6432 152° Southeast  Level FlightAware Approximate
Sat 01:30:00 AM 6.6131 -73.5806 152° Southeast  Level FlightAware Approximate
Sat 01:31:00 AM 6.4978 -73.5181 152° Southeast  Level FlightAware Approximate
Sat 01:32:00 AM 6.3825 -73.4555 152° Southeast  Level FlightAware Approximate
Sat 01:33:00 AM 6.2672 -73.3930 152° Southeast  Level FlightAware Approximate
Sat 01:34:00 AM 6.1519 -73.3305 152° Southeast  Level FlightAware Approximate
Sat 01:35:00 AM 6.0366 -73.2680 152° Southeast  Level FlightAware Approximate
Sat 01:36:00 AM 5.9212 -73.2056 152° Southeast  Level FlightAware Approximate
Sat 01:37:00 AM 5.8059 -73.1432 152° Southeast  Level FlightAware Approximate
Sat 01:38:00 AM 5.6906 -73.0808 152° Southeast  Level FlightAware Approximate
Sat 01:39:00 AM 5.5752 -73.0184 152° Southeast  Level FlightAware Approximate
Sat 01:40:00 AM 5.4599 -72.9560 152° Southeast  Level FlightAware Approximate
Sat 01:41:00 AM 5.3445 -72.8937 152° Southeast  Level FlightAware Approximate
Sat 01:42:00 AM 5.2292 -72.8314 152° Southeast  Level FlightAware Approximate
Sat 01:43:00 AM 5.1138 -72.7692 152° Southeast  Level FlightAware Approximate
Sat 01:44:00 AM 4.9984 -72.7069 152° Southeast  Level FlightAware Approximate
Sat 01:45:00 AM 4.8830 -72.6447 152° Southeast  Level FlightAware Approximate
Sat 01:46:00 AM 4.7677 -72.5825 152° Southeast  Level FlightAware Approximate
Sat 01:47:00 AM 4.6523 -72.5203 152° Southeast  Level FlightAware Approximate
Sat 01:48:00 AM 4.5369 -72.4581 152° Southeast  Level FlightAware Approximate
Sat 01:49:00 AM 4.4215 -72.3960 152° Southeast  Level FlightAware Approximate
Sat 01:50:00 AM 4.3061 -72.3338 152° Southeast  Level FlightAware Approximate
Sat 01:51:00 AM 4.1906 -72.2717 152° Southeast  Level FlightAware Approximate
Sat 01:52:00 AM 4.0752 -72.2096 152° Southeast  Level FlightAware Approximate
Sat 01:53:00 AM 3.9598 -72.1476 152° Southeast  Level FlightAware Approximate
Sat 01:54:00 AM 3.8508 -72.0751 145° Southeast  Level FlightAware Approximate
Sat 01:55:00 AM 3.7441 -71.9998 145° Southeast  Level FlightAware Approximate
Sat 01:56:00 AM 3.6374 -71.9245 145° Southeast  Level FlightAware Approximate
Sat 01:57:00 AM 3.5306 -71.8492 145° Southeast  Level FlightAware Approximate
Sat 01:58:00 AM 3.4239 -71.7740 145° Southeast  Level FlightAware Approximate
Sat 01:59:00 AM 3.3171 -71.6987 145° Southeast  Level FlightAware Approximate
Sat 02:00:00 AM 3.2104 -71.6235 145° Southeast  Level FlightAware Approximate
Sat 02:01:00 AM 3.1036 -71.5483 145° Southeast  Level FlightAware Approximate
Sat 02:02:00 AM 2.9968 -71.4731 145° Southeast  Level FlightAware Approximate
Sat 02:03:00 AM 2.8901 -71.3979 145° Southeast  Level FlightAware Approximate
Sat 02:04:00 AM 2.7833 -71.3228 145° Southeast  Level FlightAware Approximate
Sat 02:05:00 AM 2.6765 -71.2476 145° Southeast  Level FlightAware Approximate
Sat 02:06:00 AM 2.5697 -71.1725 145° Southeast  Level FlightAware Approximate
Sat 02:07:00 AM 2.4629 -71.0974 145° Southeast  Level FlightAware Approximate
Sat 02:08:00 AM 2.3561 -71.0223 145° Southeast  Level FlightAware Approximate
Sat 02:09:00 AM 2.2493 -70.9472 145° Southeast  Level FlightAware Approximate
Sat 02:10:00 AM 2.1425 -70.8721 145° Southeast  Level FlightAware Approximate
Sat 02:11:00 AM 2.0357 -70.7970 145° Southeast  Level FlightAware Approximate
Sat 02:12:00 AM 1.9289 -70.7219 145° Southeast  Level FlightAware Approximate
Sat 02:13:00 AM 1.8221 -70.6469 145° Southeast  Level FlightAware Approximate
Sat 02:14:00 AM 1.7153 -70.5718 145° Southeast  Level FlightAware Approximate
Sat 02:15:00 AM 1.6085 -70.4968 145° Southeast  Level FlightAware Approximate
Sat 02:16:00 AM 1.5016 -70.4218 145° Southeast  Level FlightAware Approximate
Sat 02:17:00 AM 1.3948 -70.3467 145° Southeast  Level FlightAware Approximate
Sat 02:18:00 AM 1.2880 -70.2717 145° Southeast  Level FlightAware Approximate
Sat 02:19:00 AM 1.1858 -70.1910 138° Southeast  Level FlightAware Approximate
Sat 02:20:00 AM 1.0883 -70.1041 138° Southeast  Level FlightAware Approximate
Sat 02:21:00 AM 0.9908 -70.0173 138° Southeast  Level FlightAware Approximate
Sat 02:22:00 AM 0.8933 -69.9306 138° Southeast  Level FlightAware Approximate
Sat 02:23:00 AM 0.7958 -69.8438 138° Southeast  Level FlightAware Approximate
Sat 02:24:00 AM 0.6983 -69.7570 138° Southeast  Level FlightAware Approximate
Sat 02:25:00 AM 0.6008 -69.6702 138° Southeast  Level FlightAware Approximate
Sat 02:26:00 AM 0.5033 -69.5834 138° Southeast  Level FlightAware Approximate
Sat 02:27:00 AM 0.4058 -69.4966 138° Southeast  Level FlightAware Approximate
Sat 02:28:00 AM 0.3083 -69.4099 138° Southeast  Level FlightAware Approximate
Sat 02:29:00 AM 0.2108 -69.3231 138° Southeast  Level FlightAware Approximate
Sat 02:30:00 AM 0.1133 -69.2363 138° Southeast  Level FlightAware Approximate
Sat 02:31:00 AM 0.0158 -69.1496 138° Southeast  Level FlightAware Approximate
Sat 02:32:00 AM -0.0817 -69.0628 138° Southeast  Level FlightAware Approximate
Sat 02:33:00 AM -0.1792 -68.9760 138° Southeast  Level FlightAware Approximate
Sat 02:34:00 AM -0.2767 -68.8893 138° Southeast  Level FlightAware Approximate
Sat 02:35:00 AM -0.3742 -68.8025 138° Southeast  Level FlightAware Approximate
Sat 02:36:00 AM -0.4717 -68.7157 138° Southeast  Level FlightAware Approximate
Sat 02:37:00 AM -0.5692 -68.6289 138° Southeast  Level FlightAware Approximate
Sat 02:38:00 AM -0.6667 -68.5421 138° Southeast  Level FlightAware Approximate
Sat 02:39:00 AM -0.7642 -68.4554 138° Southeast  Level FlightAware Approximate
Sat 02:40:00 AM -0.8617 -68.3686 138° Southeast  Level FlightAware Approximate
Sat 02:41:00 AM -0.9592 -68.2818 138° Southeast  Level FlightAware Approximate
Sat 02:42:00 AM -1.0567 -68.1950 138° Southeast  Level FlightAware Approximate
Sat 02:43:00 AM -1.1542 -68.1082 138° Southeast  Level FlightAware Approximate
Sat 02:44:00 AM -1.2517 -68.0214 138° Southeast  Level FlightAware Approximate
Sat 02:45:00 AM -1.3492 -67.9345 138° Southeast  Level FlightAware Approximate
Sat 02:46:00 AM -1.4467 -67.8477 138° Southeast  Level FlightAware Approximate
Sat 02:47:00 AM -1.5441 -67.7609 138° Southeast  Level FlightAware Approximate
Sat 02:48:00 AM -1.6416 -67.6741 138° Southeast  Level FlightAware Approximate
Sat 02:49:00 AM -1.7391 -67.5872 138° Southeast  Level FlightAware Approximate
Sat 02:50:00 AM -1.8365 -67.5004 138° Southeast  Level FlightAware Approximate
Sat 02:51:00 AM -1.9340 -67.4135 138° Southeast  Level FlightAware Approximate
Sat 02:52:00 AM -2.0315 -67.3266 138° Southeast  Level FlightAware Approximate
Sat 02:53:00 AM -2.1289 -67.2397 138° Southeast  Level FlightAware Approximate
Sat 02:54:00 AM -2.2264 -67.1528 138° Southeast  Level FlightAware Approximate
Sat 02:55:00 AM -2.3238 -67.0659 138° Southeast  Level FlightAware Approximate
Sat 02:56:00 AM -2.4212 -66.9790 138° Southeast  Level FlightAware Approximate
Sat 02:57:00 AM -2.5187 -66.8921 138° Southeast  Level FlightAware Approximate
Sat 02:58:00 AM -2.6161 -66.8051 138° Southeast  Level FlightAware Approximate
Sat 02:59:00 AM -2.7135 -66.7182 138° Southeast  Level FlightAware Approximate
Sat 03:00:00 AM -2.8109 -66.6312 138° Southeast  Level FlightAware Approximate
Sat 03:01:00 AM -2.9083 -66.5442 138° Southeast  Level FlightAware Approximate
Sat 03:02:00 AM -3.0057 -66.4572 138° Southeast  Level FlightAware Approximate
Sat 03:03:00 AM -3.1031 -66.3702 138° Southeast  Level FlightAware Approximate
Sat 03:04:00 AM -3.2005 -66.2831 138° Southeast  Level FlightAware Approximate
Sat 03:05:00 AM -3.2979 -66.1961 138° Southeast  Level FlightAware Approximate
Sat 03:06:00 AM -3.3953 -66.1090 138° Southeast  Level FlightAware Approximate
Sat 03:07:00 AM -3.4926 -66.0219 138° Southeast  Level FlightAware Approximate
Sat 03:08:00 AM -3.5900 -65.9348 138° Southeast  Level FlightAware Approximate
Sat 03:09:00 AM -3.6873 -65.8477 138° Southeast  Level FlightAware Approximate
Sat 03:10:00 AM -3.7847 -65.7606 138° Southeast  Level FlightAware Approximate
Sat 03:11:00 AM -3.8820 -65.6734 138° Southeast  Level FlightAware Approximate
Sat 03:12:00 AM -3.9793 -65.5862 138° Southeast  Level FlightAware Approximate
Sat 03:13:00 AM -4.0766 -65.4990 138° Southeast  Level FlightAware Approximate
Sat 03:14:00 AM -4.1739 -65.4118 138° Southeast  Level FlightAware Approximate
Sat 03:15:00 AM -4.2712 -65.3246 138° Southeast  Level FlightAware Approximate
Sat 03:16:00 AM -4.3685 -65.2373 138° Southeast  Level FlightAware Approximate
Sat 03:17:00 AM -4.4658 -65.1500 138° Southeast  Level FlightAware Approximate
Sat 03:18:00 AM -4.5630 -65.0627 138° Southeast  Level FlightAware Approximate
Sat 03:19:00 AM -4.6603 -64.9754 138° Southeast  Level FlightAware Approximate
Sat 03:20:00 AM -4.7575 -64.8880 138° Southeast  Level FlightAware Approximate
Sat 03:21:00 AM -4.8548 -64.8006 138° Southeast  Level FlightAware Approximate
Sat 03:22:00 AM -4.9520 -64.7132 138° Southeast  Level FlightAware Approximate
Sat 03:23:00 AM -5.0492 -64.6258 138° Southeast  Level FlightAware Approximate
Sat 03:24:00 AM -5.1464 -64.5383 138° Southeast  Level FlightAware Approximate
Sat 03:25:00 AM -5.2436 -64.4508 138° Southeast  Level FlightAware Approximate
Sat 03:26:00 AM -5.3408 -64.3633 138° Southeast  Level FlightAware Approximate
Sat 03:27:00 AM -5.4379 -64.2758 138° Southeast  Level FlightAware Approximate
Sat 03:28:00 AM -5.5351 -64.1882 138° Southeast  Level FlightAware Approximate
Sat 03:29:00 AM -5.6322 -64.1006 138° Southeast  Level FlightAware Approximate
Sat 03:30:00 AM -5.7293 -64.0130 138° Southeast  Level FlightAware Approximate
Sat 03:31:00 AM -5.8264 -63.9253 138° Southeast  Level FlightAware Approximate
Sat 03:32:00 AM -5.9235 -63.8376 138° Southeast  Level FlightAware Approximate
Sat 03:33:00 AM -6.0206 -63.7499 138° Southeast  Level FlightAware Approximate
Sat 03:34:00 AM -6.1177 -63.6622 138° Southeast  Level FlightAware Approximate
Sat 03:35:00 AM -6.2147 -63.5744 138° Southeast  Level FlightAware Approximate
Sat 03:36:00 AM -6.3118 -63.4865 138° Southeast  Level FlightAware Approximate
Sat 03:37:00 AM -6.4088 -63.3987 138° Southeast  Level FlightAware Approximate
Sat 03:38:00 AM -6.5058 -63.3108 138° Southeast  Level FlightAware Approximate
Sat 03:39:00 AM -6.6028 -63.2229 138° Southeast  Level FlightAware Approximate
Sat 03:40:00 AM -6.6998 -63.1349 138° Southeast  Level FlightAware Approximate
Sat 03:41:00 AM -6.7967 -63.0470 138° Southeast  Level FlightAware Approximate
Sat 03:42:00 AM -6.8937 -62.9589 138° Southeast  Level FlightAware Approximate
Sat 03:43:00 AM -6.9906 -62.8709 138° Southeast  Level FlightAware Approximate
Sat 03:44:00 AM -7.0874 -62.7829 138° Southeast  Level FlightAware Approximate
Sat 03:45:00 AM -7.1841 -62.6950 138° Southeast  Level FlightAware Approximate
Sat 03:46:00 AM -7.2808 -62.6069 138° Southeast  Level FlightAware Approximate
Sat 03:47:00 AM -7.3775 -62.5189 138° Southeast  Level FlightAware Approximate
Sat 03:48:00 AM -7.4742 -62.4308 138° Southeast  Level FlightAware Approximate
Sat 03:49:00 AM -7.5708 -62.3427 138° Southeast  Level FlightAware Approximate
Sat 03:50:00 AM -7.6675 -62.2545 138° Southeast  Level FlightAware Approximate
Sat 03:51:00 AM -7.7641 -62.1663 138° Southeast  Level FlightAware Approximate
Sat 03:52:00 AM -7.8607 -62.0780 138° Southeast  Level FlightAware Approximate
Sat 03:53:00 AM -7.9573 -61.9898 138° Southeast  Level FlightAware Approximate
Sat 03:54:00 AM -8.0539 -61.9014 138° Southeast  Level FlightAware Approximate
Sat 03:55:00 AM -8.1504 -61.8131 138° Southeast  Level FlightAware Approximate
Sat 03:56:00 AM -8.2470 -61.7246 138° Southeast  Level FlightAware Approximate
Sat 03:57:00 AM -8.3435 -61.6362 138° Southeast  Level FlightAware Approximate
Sat 03:58:00 AM -8.4401 -61.5475 138° Southeast  Level FlightAware Approximate
Sat 03:59:00 AM -8.5368 -61.4588 138° Southeast  Level FlightAware Approximate
Sat 04:00:00 AM -8.6334 -61.3701 138° Southeast  Level FlightAware Approximate
Sat 04:01:00 AM -8.7300 -61.2813 138° Southeast  Level FlightAware Approximate
Sat 04:02:00 AM -8.8266 -61.1924 138° Southeast  Level FlightAware Approximate
Sat 04:03:00 AM -8.9231 -61.1035 138° Southeast  Level FlightAware Approximate
Sat 04:04:00 AM -9.0197 -61.0146 138° Southeast  Level FlightAware Approximate
Sat 04:05:00 AM -9.1162 -60.9256 138° Southeast  Level FlightAware Approximate
Sat 04:06:00 AM -9.2127 -60.8366 138° Southeast  Level FlightAware Approximate
Sat 04:07:00 AM -9.3091 -60.7475 138° Southeast  Level FlightAware Approximate
Sat 04:08:00 AM -9.4056 -60.6584 138° Southeast  Level FlightAware Approximate
Sat 04:09:00 AM -9.5020 -60.5692 138° Southeast  Level FlightAware Approximate
Sat 04:10:00 AM -9.5984 -60.4800 138° Southeast  Level FlightAware Approximate
Sat 04:11:00 AM -9.6948 -60.3907 138° Southeast  Level FlightAware Approximate
Sat 04:12:00 AM -9.7912 -60.3014 138° Southeast  Level FlightAware Approximate
Sat 04:13:00 AM -9.8875 -60.2120 138° Southeast  Level FlightAware Approximate
Sat 04:14:00 AM -9.9838 -60.1226 138° Southeast  Level FlightAware Approximate
Sat 04:15:00 AM -10.0801 -60.0331 138° Southeast  Level FlightAware Approximate
Sat 04:16:00 AM -10.1764 -59.9435 138° Southeast  Level FlightAware Approximate
Sat 04:17:00 AM -10.2726 -59.8540 138° Southeast  Level FlightAware Approximate
Sat 04:18:00 AM -10.3688 -59.7643 137° Southeast  Level FlightAware Approximate
Sat 04:19:00 AM -10.4650 -59.6746 137° Southeast  Level FlightAware Approximate
Sat 04:20:00 AM -10.5612 -59.5848 137° Southeast  Level FlightAware Approximate
Sat 04:21:00 AM -10.6573 -59.4950 137° Southeast  Level FlightAware Approximate
Sat 04:22:00 AM -10.7535 -59.4052 137° Southeast  Level FlightAware Approximate
Sat 04:23:00 AM -10.8496 -59.3152 137° Southeast  Level FlightAware Approximate
Sat 04:24:00 AM -10.9456 -59.2252 137° Southeast  Level FlightAware Approximate
Sat 04:25:00 AM -11.0416 -59.1352 137° Southeast  Level FlightAware Approximate
Sat 04:26:00 AM -11.1377 -59.0451 137° Southeast  Level FlightAware Approximate
Sat 04:27:00 AM -11.2336 -58.9549 137° Southeast  Level FlightAware Approximate
Sat 04:28:00 AM -11.3296 -58.8647 137° Southeast  Level FlightAware Approximate
Sat 04:29:00 AM -11.4257 -58.7743 137° Southeast  Level FlightAware Approximate
Sat 04:30:00 AM -11.5218 -58.6838 137° Southeast  Level FlightAware Approximate
Sat 04:31:00 AM -11.6178 -58.5932 137° Southeast  Level FlightAware Approximate
Sat 04:32:00 AM -11.7138 -58.5026 137° Southeast  Level FlightAware Approximate
Sat 04:33:00 AM -11.8098 -58.4119 137° Southeast  Level FlightAware Approximate
Sat 04:34:00 AM -11.9058 -58.3211 137° Southeast  Level FlightAware Approximate
Sat 04:35:00 AM -12.0017 -58.2303 137° Southeast  Level FlightAware Approximate
Sat 04:36:00 AM -12.0976 -58.1394 137° Southeast  Level FlightAware Approximate
Sat 04:37:00 AM -12.1935 -58.0485 137° Southeast  Level FlightAware Approximate
Sat 04:38:00 AM -12.2893 -57.9575 137° Southeast  Level FlightAware Approximate
Sat 04:39:00 AM -12.3851 -57.8664 137° Southeast  Level FlightAware Approximate
Sat 04:40:00 AM -12.4809 -57.7752 137° Southeast  Level FlightAware Approximate
Sat 04:41:00 AM -12.5766 -57.6840 137° Southeast  Level FlightAware Approximate
Sat 04:42:00 AM -12.6724 -57.5927 137° Southeast  Level FlightAware Approximate
Sat 04:43:00 AM -12.7680 -57.5014 137° Southeast  Level FlightAware Approximate
Sat 04:44:00 AM -12.8637 -57.4100 137° Southeast  Level FlightAware Approximate
Sat 04:45:00 AM -12.9593 -57.3185 137° Southeast  Level FlightAware Approximate
Sat 04:46:00 AM -13.0549 -57.2269 137° Southeast  Level FlightAware Approximate
Sat 04:47:00 AM -13.1505 -57.1353 137° Southeast  Level FlightAware Approximate
Sat 04:48:00 AM -13.2460 -57.0436 137° Southeast  Level FlightAware Approximate
Sat 04:49:00 AM -13.3415 -56.9518 137° Southeast  Level FlightAware Approximate
Sat 04:50:00 AM -13.4369 -56.8600 137° Southeast  Level FlightAware Approximate
Sat 04:51:00 AM -13.5324 -56.7680 137° Southeast  Level FlightAware Approximate
Sat 04:52:00 AM -13.6278 -56.6760 137° Southeast  Level FlightAware Approximate
Sat 04:53:00 AM -13.7231 -56.5840 137° Southeast  Level FlightAware Approximate
Sat 04:54:00 AM -13.8184 -56.4918 137° Southeast  Level FlightAware Approximate
Sat 04:55:00 AM -13.9137 -56.3996 137° Southeast  Level FlightAware Approximate
Sat 04:56:00 AM -14.0090 -56.3073 137° Southeast  Level FlightAware Approximate
Sat 04:57:00 AM -14.1042 -56.2149 137° Southeast  Level FlightAware Approximate
Sat 04:58:00 AM -14.1994 -56.1225 137° Southeast  Level FlightAware Approximate
Sat 04:59:00 AM -14.2945 -56.0300 137° Southeast  Level FlightAware Approximate
Sat 05:00:00 AM -14.3896 -55.9374 137° Southeast  Level FlightAware Approximate
Sat 05:01:00 AM -14.4847 -55.8447 137° Southeast  Level FlightAware Approximate
Sat 05:02:00 AM -14.5798 -55.7519 137° Southeast  Level FlightAware Approximate
Sat 05:03:00 AM -14.6748 -55.6591 137° Southeast  Level FlightAware Approximate
Sat 05:04:00 AM -14.7697 -55.5662 137° Southeast  Level FlightAware Approximate
Sat 05:05:00 AM -14.8647 -55.4731 137° Southeast  Level FlightAware Approximate
Sat 05:06:00 AM -14.9595 -55.3801 137° Southeast  Level FlightAware Approximate
Sat 05:07:00 AM -15.0544 -55.2869 137° Southeast  Level FlightAware Approximate
Sat 05:08:00 AM -15.1492 -55.1936 136° Southeast  Level FlightAware Approximate
Sat 05:09:00 AM -15.2440 -55.1003 136° Southeast  Level FlightAware Approximate
Sat 05:10:00 AM -15.3387 -55.0069 136° Southeast  Level FlightAware Approximate
Sat 05:11:00 AM -15.4334 -54.9134 136° Southeast  Level FlightAware Approximate
Sat 05:12:00 AM -15.5280 -54.8199 136° Southeast  Level FlightAware Approximate
Sat 05:13:00 AM -15.6224 -54.7264 136° Southeast  Level FlightAware Approximate
Sat 05:14:00 AM -15.7168 -54.6328 136° Southeast  Level FlightAware Approximate
Sat 05:15:00 AM -15.8112 -54.5391 136° Southeast  Level FlightAware Approximate
Sat 05:16:00 AM -15.9056 -54.4454 136° Southeast  Level FlightAware Approximate
Sat 05:17:00 AM -15.9999 -54.3515 136° Southeast  Level FlightAware Approximate
Sat 05:18:00 AM -16.0941 -54.2575 136° Southeast  Level FlightAware Approximate
Sat 05:19:00 AM -16.1883 -54.1635 136° Southeast  Level FlightAware Approximate
Sat 05:20:00 AM -16.2825 -54.0694 136° Southeast  Level FlightAware Approximate
Sat 05:21:00 AM -16.3766 -53.9752 136° Southeast  Level FlightAware Approximate
Sat 05:22:00 AM -16.4707 -53.8809 136° Southeast  Level FlightAware Approximate
Sat 05:23:00 AM -16.5648 -53.7864 136° Southeast  Level FlightAware Approximate
Sat 05:24:00 AM -16.6588 -53.6920 136° Southeast  Level FlightAware Approximate
Sat 05:25:00 AM -16.7527 -53.5974 136° Southeast  Level FlightAware Approximate
Sat 05:26:00 AM -16.8467 -53.5027 136° Southeast  Level FlightAware Approximate
Sat 05:27:00 AM -16.9405 -53.4079 136° Southeast  Level FlightAware Approximate
Sat 05:28:00 AM -17.0344 -53.3130 136° Southeast  Level FlightAware Approximate
Sat 05:29:00 AM -17.1282 -53.2181 136° Southeast  Level FlightAware Approximate
Sat 05:30:00 AM -17.2219 -53.1230 136° Southeast  Level FlightAware Approximate
Sat 05:31:00 AM -17.3156 -53.0279 136° Southeast  Level FlightAware Approximate
Sat 05:32:00 AM -17.4093 -52.9326 136° Southeast  Level FlightAware Approximate
Sat 05:33:00 AM -17.5029 -52.8373 136° Southeast  Level FlightAware Approximate
Sat 05:34:00 AM -17.5964 -52.7418 136° Southeast  Level FlightAware Approximate
Sat 05:35:00 AM -17.6899 -52.6463 136° Southeast  Level FlightAware Approximate
Sat 05:36:00 AM -17.7834 -52.5506 136° Southeast  Level FlightAware Approximate
Sat 05:37:00 AM -17.8768 -52.4549 136° Southeast  Level FlightAware Approximate
Sat 05:38:00 AM -17.9702 -52.3590 136° Southeast  Level FlightAware Approximate
Sat 05:39:00 AM -18.0635 -52.2631 136° Southeast  Level FlightAware Approximate
Sat 05:40:00 AM -18.1568 -52.1670 136° Southeast  Level FlightAware Approximate
Sat 05:41:00 AM -18.2501 -52.0709 136° Southeast  Level FlightAware Approximate
Sat 05:42:00 AM -18.3433 -51.9746 136° Southeast  Level FlightAware Approximate
Sat 05:43:00 AM -18.4364 -51.8783 136° Southeast  Level FlightAware Approximate
Sat 05:44:00 AM -18.5295 -51.7818 136° Southeast  Level FlightAware Approximate
Sat 05:44:17 AM -19.1490 -50.5080 135° Southeast 500 575 33,000  Level FlightAware ADS-B
Sat 05:45:00 AM -18.6225 -51.6852 135° Southeast  Level FlightAware Approximate
Sat 05:45:04 AM -19.2230 -50.4270 134° Southeast 500 575 33,000  Level FlightAware ADS-B
Sat 05:45:43 AM -19.2880 -50.3560 134° Southeast 502 578 33,000  Level FlightAware ADS-B
Sat 05:46:27 AM -19.3580 -50.2780 134° Southeast 502 578 33,000  Level FlightAware ADS-B
Sat 05:47:07 AM -19.4240 -50.2060 134° Southeast 502 578 33,000  Level FlightAware ADS-B
Sat 05:47:49 AM -19.4910 -50.1330 134° Southeast 504 580 33,000  Level FlightAware ADS-B
Sat 05:48:33 AM -19.5620 -50.0540 134° Southeast 503 579 33,000  Level FlightAware ADS-B
Sat 05:49:13 AM -19.6280 -49.9820 134° Southeast 503 579 33,000  Level FlightAware ADS-B
Sat 05:49:55 AM -19.6960 -49.9080 134° Southeast 503 579 33,000  Level FlightAware ADS-B
Sat 05:50:37 AM -19.7630 -49.8340 134° Southeast 502 578 33,000  Level FlightAware ADS-B
Sat 05:51:19 AM -19.8320 -49.7600 135° Southeast 502 578 33,000  Level FlightAware ADS-B
Sat 05:52:01 AM -19.9000 -49.6850 134° Southeast 501 577 33,000  Level FlightAware ADS-B
Sat 05:52:45 AM -19.9700 -49.6080 134° Southeast 501 577 33,000  Level FlightAware ADS-B
Sat 05:53:25 AM -20.0350 -49.5360 134° Southeast 502 578 33,000  Level FlightAware ADS-B
Sat 05:54:07 AM -20.1030 -49.4610 134° Southeast 502 578 33,000  Level FlightAware ADS-B
Sat 05:54:49 AM -20.1710 -49.3870 134° Southeast 502 578 33,000  Level FlightAware ADS-B
Sat 05:55:33 AM -20.2390 -49.3120 134° Southeast 502 578 33,000  Level FlightAware ADS-B
Sat 05:56:14 AM -20.3070 -49.2370 134° Southeast 503 579 33,000  Level FlightAware ADS-B
Sat 05:56:55 AM -20.3740 -49.1620 134° Southeast 504 580 33,000  Level FlightAware ADS-B
Sat 05:57:37 AM -20.4420 -49.0870 134° Southeast 504 580 33,000  Level FlightAware ADS-B
Sat 05:58:19 AM -20.5100 -49.0120 134° Southeast 505 581 33,000  Level FlightAware ADS-B
Sat 05:59:03 AM -20.5810 -48.9340 134° Southeast 504 580 33,000  Level FlightAware ADS-B
Sat 05:59:43 AM -20.6460 -48.8610 134° Southeast 505 581 33,000  Level FlightAware ADS-B
Sat 06:00:23 AM -20.7100 -48.7900 134° Southeast 505 581 33,000  Level FlightAware ADS-B
Sat 06:01:09 AM -20.7850 -48.7060 134° Southeast 505 581 33,000  Level FlightAware ADS-B
Sat 06:01:47 AM -20.8400 -48.6440 134° Southeast 505 581 33,000  Level FlightAware ADS-B
Sat 06:02:31 AM -20.9180 -48.5570 134° Southeast 507 583 33,000  Level FlightAware ADS-B
Sat 06:03:13 AM -20.9850 -48.4810 133° Southeast 507 583 33,000  Level FlightAware ADS-B
Sat 06:03:57 AM -21.0560 -48.4010 134° Southeast 508 585 33,000  Level FlightAware ADS-B
Sat 06:04:37 AM -21.1180 -48.3310 134° Southeast 509 586 33,000  Level FlightAware ADS-B
Sat 06:05:21 AM -21.1900 -48.2500 134° Southeast 510 587 33,000  Level FlightAware ADS-B
Sat 06:06:00 AM -21.2560 -48.1750 133° Southeast 509 586 33,000  Level FlightAware ADS-B
Sat 06:06:42 AM -21.3240 -48.0980 133° Southeast 509 586 33,000  Level FlightAware ADS-B
Sat 06:07:26 AM -21.3960 -48.0170 134° Southeast 509 586 33,000  Level FlightAware ADS-B
Sat 06:08:07 AM -21.4600 -47.9440 133° Southeast 509 586 33,000  Level FlightAware ADS-B
Sat 06:08:52 AM -21.5340 -47.8600 133° Southeast 508 585 33,000  Level FlightAware ADS-B
Sat 06:09:30 AM -21.5960 -47.7900 134° Southeast 508 585 33,000  Level FlightAware ADS-B
Sat 06:10:14 AM -21.6670 -47.7090 133° Southeast 509 586 33,000  Level FlightAware ADS-B
Sat 06:10:58 AM -21.7390 -47.6270 133° Southeast 508 585 33,000  Level FlightAware ADS-B
Sat 06:11:34 AM -21.7950 -47.5630 133° Southeast 508 585 33,000  Level FlightAware ADS-B
Sat 06:12:21 AM -21.8700 -47.4760 133° Southeast 507 583 33,000 -70 Level FlightAware ADS-B
Sat 06:13:00 AM -21.9400 -47.4100 139° Southeast 500 575 32,900 -1,553 Descending FlightAware ADS-B
Sat 06:13:46 AM -22.0350 -47.3590 154° Southeast 500 575 30,800 -2,581 Descending FlightAware ADS-B
Sat 06:14:26 AM -22.1190 -47.3200 157° South 489 563 29,200 -2,250 Descending FlightAware ADS-B
Sat 06:15:06 AM -22.2020 -47.2810 156° South 476 548 27,800 -2,024 Descending FlightAware ADS-B
Sat 06:15:49 AM -22.2850 -47.2410 156° South 464 534 26,400 -2,138 Descending FlightAware ADS-B
Sat 06:16:33 AM -22.3700 -47.1990 155° Southeast 456 525 24,700 -2,241 Descending FlightAware ADS-B
Sat 06:17:12 AM -22.4460 -47.1620 156° South 449 517 23,300 -2,169 Descending FlightAware ADS-B
Sat 06:17:56 AM -22.5280 -47.1210 155° Southeast 440 506 21,700 -2,093 Descending FlightAware ADS-B
Sat 06:18:38 AM -22.6060 -47.0860 157° South 428 493 20,300 -2,143 Descending FlightAware ADS-B
Sat 06:19:20 AM -22.6840 -47.0530 159° South 423 487 18,700 -2,074 Descending FlightAware ADS-B
Sat 06:19:59 AM -22.7490 -47.0260 159° South 418 481 17,500 -2,302 Descending FlightAware ADS-B
Sat 06:20:46 AM -22.8390 -46.9880 159° South 398 458 15,400 -2,138 Descending FlightAware ADS-B
Sat 06:21:26 AM -22.9030 -46.9610 159° South 371 427 14,400 -1,725 Descending FlightAware ADS-B
Sat 06:22:06 AM -22.9640 -46.9350 159° South 326 375 13,100 -1,744 Descending FlightAware ADS-B
Sat 06:22:52 AM -23.0250 -46.9090 159° South 283 326 11,900 -1,605 Descending FlightAware ADS-B
Sat 06:23:32 AM -23.0740 -46.8890 159° South 286 329 10,800 -1,425 Descending FlightAware ADS-B
Sat 06:24:12 AM -23.1230 -46.8680 158° South 276 318 10,000 -1,147 Descending FlightAware ADS-B
Sat 06:24:40 AM -23.1570 -46.8540 159° South 270 311 9,500 -1,158 Descending FlightAware ADS-B
Sat 06:25:09 AM -23.1890 -46.8400 158° South 268 308 8,900 -1,174 Descending FlightAware ADS-B
Sat 06:25:26 AM -23.2090 -46.8320 160° South 266 306 8,600 -1,067 Descending FlightAware ADS-B
Sat 06:25:54 AM -23.2420 -46.8180 159° South 267 307 8,100 -1,080 Descending FlightAware ADS-B
Sat 06:26:16 AM -23.2670 -46.8070 158° South 264 304 7,700 -750 Descending FlightAware ADS-B
Sat 06:26:34 AM -23.2860 -46.8000 161° South 254 292 7,600 -391 Descending FlightAware ADS-B
Sat 06:27:02 AM -23.3160 -46.7870 158° South 233 268 7,400 -429 Descending FlightAware ADS-B
Sat 06:27:30 AM -23.3430 -46.7750 158° South 216 249 7,200 -321 Descending FlightAware ADS-B
Sat 06:27:58 AM -23.3700 -46.7630 158° South 214 246 7,100 -536 Descending FlightAware ADS-B
Sat 06:28:26 AM -23.3920 -46.7450 143° Southeast 219 252 6,700 -964 Descending FlightAware ADS-B
Sat 06:28:54 AM -23.4130 -46.7250 139° Southeast 214 246 6,200 -1,179 Descending FlightAware ADS-B
Sat 06:29:22 AM -23.4340 -46.7050 139° Southeast 216 249 5,600 -1,263 Descending FlightAware ADS-B
Sat 06:29:51 AM -23.4520 -46.6820 130° Southeast 209 241 5,000 -923 Descending FlightAware ADS-B
Sat 06:30:14 AM -23.4620 -46.6600 116° Southeast 194 223 4,800 -585 Descending FlightAware ADS-B
Sat 06:30:32 AM -23.4680 -46.6450 114° Southeast 183 211 4,600 -545 Descending FlightAware ADS-B
Sat 06:30:58 AM -23.4750 -46.6240 110° East 172 198 4,400 -429 Descending FlightAware ADS-B
Sat 06:31:28 AM -23.4690 -46.6000 75° East 170 196 4,200 -643 Descending FlightAware ADS-B
Sat 06:31:54 AM -23.4640 -46.5810 74° East 164 189 3,800 -906 Descending FlightAware ADS-B
Sat 06:32:21 AM -23.4580 -46.5580 74° East 138 159 3,400 -737 Descending FlightAware ADS-B
Sat 06:32:51 AM -23.4530 -46.5390 74° East 138 159 3,100 -667 Descending FlightAware ADS-B
Sat 06:33:06 AM -23.4500 -46.5280 73° East 138 159 2,900 -800 Descending FlightAware ADS-B
Sat 06:33:36 AM -23.4440 -46.5070 73° East 141 162 2,500 -764 Descending FlightAware ADS-B
Sat 06:34:01 AM -23.4400 -46.4910 75° East 141 162 2,200 -720 Descending FlightAware ADS-B
Sat 06:34:31 AM -23.4350 -46.4720 74° East 74 85 -4,400 Descending FlightAware ADS-B
Sat 06:34:52 AM -23.4340 -46.4690 70° East 29 33  Level FlightAware ADS-B
Sat 06:35:26 AM -23.4310 -46.4670 31° Northeast 13 15  Level FlightAware ADS-B

Login

Don't have an account? Register now (free) for customized features, flight alerts, and more!